Tourist Ferry Boat 3 — IQAQ — position and weather

sailwx.info

Track history (hours):
 
Tides and Currents Weather Stations Pressure Air Temp Water Temp Dewpoint Dewpoint Depression Visibility Wind Speed Wind Dir Waves Ship Positions

Tourist Ferry Boat 3

Last reported at 2018-Apr-24 07:00 UTC. Time now 2018-Apr-24 07:07 UTC.
Position N 40°48' E 014°06'.

Length 58 m; draft 2.5 m.

Type: Ship. MMSI: 247048900.

Date/timePositionNaut miles runAvg speedWind from/ knotsBaromVisibWave heightAir tempDewpointWater temp
2018-Apr-24 07:00N 40°48' E 014°06'4 8.4
2018-Apr-24 06:29N 40°46' E 014°02'2 3.8
2018-Apr-24 06:00N 40°46' E 014°04'4 7.7
2018-Apr-24 05:30N 40°49' E 014°07'1 2.7
2018-Apr-24 04:58N 40°48' E 014°06'4 8.9
2018-Apr-24 04:30N 40°46' E 014°02'3 6.1
2018-Apr-24 04:00N 40°47' E 014°06'3 3.7
2018-Apr-24 03:10N 40°49' E 014°07'0 0.0
2018-Apr-24 02:52N 40°49' E 014°07'0 0.0
2018-Apr-24 02:22N 40°49' E 014°07'0 0.0
2018-Apr-23 23:52N 40°49' E 014°07'0 0.0
2018-Apr-23 23:28N 40°49' E 014°07'0 0.0
2018-Apr-23 22:58N 40°49' E 014°07'0 0.0
2018-Apr-23 22:28N 40°49' E 014°07'0 0.0
2018-Apr-23 21:58N 40°49' E 014°07'0 0.0
2018-Apr-23 21:28N 40°49' E 014°07'0 0.0
2018-Apr-23 20:58N 40°49' E 014°07'0 0.0
2018-Apr-23 20:28N 40°49' E 014°07'0 0.0
2018-Apr-23 19:28N 40°49' E 014°07'0 0.0
2018-Apr-23 18:46N 40°49' E 014°07'0 0.0
2018-Apr-23 18:16N 40°49' E 014°07'0 0.0
2018-Apr-23 17:37N 40°49' E 014°07'0 0.0
2018-Apr-23 17:22N 40°49' E 014°07'0 0.0
2018-Apr-23 16:46N 40°49' E 014°07'0 0.0
2018-Apr-23 15:16N 40°49' E 014°07'2 9.1
2018-Apr-23 15:01N 40°47' E 014°06'4 6.3
2018-Apr-23 14:26N 40°46' E 014°02'4 9.2
2018-Apr-23 14:00N 40°48' E 014°06'2 1.9
2018-Apr-23 13:13N 40°49' E 014°07'0 0.1
2018-Apr-23 12:11N 40°49' E 014°07'210.0
2018-Apr-23 12:00N 40°48' E 014°06'4 7.5
2018-Apr-23 11:30N 40°46' E 014°02'3 5.5
2018-Apr-23 11:00N 40°47' E 014°05'3 5.6
2018-Apr-23 10:26N 40°49' E 014°07'0 0.0
2018-Apr-23 09:57N 40°49' E 014°07'4 9.2
2018-Apr-23 09:30N 40°46' E 014°04'1 2.0
2018-Apr-23 09:00N 40°46' E 014°03'5 8.4
2018-Apr-23 08:27N 40°49' E 014°07'0 0.0
2018-Apr-23 08:00N 40°49' E 014°07'0 0.0
2018-Apr-23 07:30N 40°49' E 014°07'1 1.5
2018-Apr-23 07:00N 40°49' E 014°06'5 8.6
2018-Apr-23 06:28N 40°46' E 014°02'2 4.2
2018-Apr-23 06:00N 40°46' E 014°04'4 6.4
2018-Apr-23 05:25N 40°49' E 014°07'1 2.3
2018-Apr-23 05:00N 40°49' E 014°06'4 8.9
2018-Apr-23 04:30N 40°46' E 014°02'3 6.1
2018-Apr-23 04:00N 40°47' E 014°06'3 4.9
2018-Apr-23 03:22N 40°49' E 014°07'0 0.0
2018-Apr-23 02:58N 40°49' E 014°07'0 0.0
2018-Apr-23 02:16N 40°49' E 014°07'0 0.0
2018-Apr-23 01:52N 40°49' E 014°07'0 0.0
2018-Apr-23 01:25N 40°49' E 014°07'0 0.0
2018-Apr-23 00:52N 40°49' E 014°07'0 0.0
2018-Apr-23 00:25N 40°49' E 014°07'0 0.0
2018-Apr-22 23:34N 40°49' E 014°07'0 0.0
2018-Apr-22 23:28N 40°49' E 014°07'0 0.0
2018-Apr-22 22:52N 40°49' E 014°07'0 0.0
2018-Apr-22 21:13N 40°49' E 014°07'0 0.0
2018-Apr-22 20:49N 40°49' E 014°07'0 0.0
2018-Apr-22 20:19N 40°49' E 014°07'0 0.0
2018-Apr-22 18:58N 40°49' E 014°07'0 0.0
2018-Apr-22 18:19N 40°49' E 014°07'0 0.0
2018-Apr-22 16:49N 40°49' E 014°07'0 0.0
2018-Apr-22 15:25N 40°49' E 014°07'3 6.8
2018-Apr-22 15:00N 40°47' E 014°06'3 4.9
2018-Apr-22 14:23N 40°46' E 014°02'4 9.5
2018-Apr-22 14:00N 40°48' E 014°06'2 3.1
2018-Apr-22 13:30N 40°49' E 014°07'0 0.0
2018-Apr-22 12:53N 40°49' E 014°07'0 0.0
2018-Apr-22 12:30N 40°49' E 014°07'1 1.3
2018-Apr-22 12:00N 40°49' E 014°06'5 9.3
2018-Apr-22 11:30N 40°46' E 014°02'3 5.3
2018-Apr-22 11:00N 40°47' E 014°05'3 6.1
2018-Apr-22 10:28N 40°49' E 014°07'0 0.0
2018-Apr-22 09:57N 40°49' E 014°07'4 9.1
2018-Apr-22 09:30N 40°46' E 014°04'1 2.0
2018-Apr-22 09:00N 40°46' E 014°02'5 9.4
2018-Apr-22 08:30N 40°49' E 014°07'0 0.3
2018-Apr-22 08:00N 40°49' E 014°07'0 0.0
2018-Apr-22 07:30N 40°49' E 014°07'2 3.3
2018-Apr-22 07:00N 40°48' E 014°06'4 6.1
2018-Apr-22 06:23N 40°46' E 014°02'410.0
2018-Apr-22 06:00N 40°48' E 014°06'2 0.7
2018-Apr-22 03:37N 40°49' E 014°07'0 0.0
2018-Apr-22 03:16N 40°49' E 014°07'0 0.0
2018-Apr-22 02:58N 40°49' E 014°07'0 0.0
2018-Apr-22 01:19N 40°49' E 014°07'0 0.0
2018-Apr-22 00:49N 40°49' E 014°07'0 0.0
2018-Apr-21 15:17N 40°49' E 014°07'3 9.8
2018-Apr-21 15:00N 40°47' E 014°06'3 6.8
2018-Apr-21 14:30N 40°46' E 014°02'5 9.3
2018-Apr-21 14:00N 40°49' E 014°06'1 1.3
2018-Apr-21 13:30N 40°49' E 014°07'0 0.0
2018-Apr-21 12:58N 40°49' E 014°07'0 0.0
2018-Apr-21 12:29N 40°49' E 014°07'1 1.5
2018-Apr-21 12:00N 40°49' E 014°06'5 6.8
2018-Apr-21 11:19N 40°46' E 014°02'3 9.5
2018-Apr-21 11:00N 40°47' E 014°06'3 6.1
2018-Apr-21 10:30N 40°49' E 014°07'0 0.2
2018-Apr-21 09:58N 40°49' E 014°07'4 9.2
2018-Apr-21 09:30N 40°46' E 014°03'1 1.3
2018-Apr-21 09:00N 40°46' E 014°02'5 9.3
2018-Apr-21 08:30N 40°49' E 014°07'0 0.2
2018-Apr-21 07:13N 40°49' E 014°07'1 5.8
2018-Apr-21 06:59N 40°48' E 014°06'4 8.6
2018-Apr-21 06:30N 40°46' E 014°02'4 7.4
2018-Apr-21 06:00N 40°47' E 014°06'2 3.7
2018-Apr-21 05:25N 40°49' E 014°07'0 0.0
2018-Apr-21 04:43N 40°49' E 014°07'0 0.0
2018-Apr-21 04:28N 40°49' E 014°07'0 0.0
2018-Apr-21 03:58N 40°49' E 014°07'0 0.0
2018-Apr-21 03:28N 40°49' E 014°07'0 0.0
2018-Apr-21 02:58N 40°49' E 014°07'0 0.0
2018-Apr-21 02:28N 40°49' E 014°07'0 0.0
2018-Apr-21 01:46N 40°49' E 014°07'0 0.0
2018-Apr-21 01:28N 40°49' E 014°07'0 0.0
2018-Apr-21 00:58N 40°49' E 014°07'0 0.0
2018-Apr-21 00:28N 40°49' E 014°07'0 0.0
2018-Apr-20 23:58N 40°49' E 014°07'0 0.0
2018-Apr-20 23:19N 40°49' E 014°07'0 0.0
2018-Apr-20 22:49N 40°49' E 014°07'0 0.0
2018-Apr-20 22:19N 40°49' E 014°07'0 0.0
2018-Apr-20 21:52N 40°49' E 014°07'0 0.0
2018-Apr-20 21:22N 40°49' E 014°07'0 0.0
2018-Apr-20 20:52N 40°49' E 014°07'0 0.0
2018-Apr-20 20:19N 40°49' E 014°07'0 0.0
2018-Apr-20 19:52N 40°49' E 014°07'0 0.0
2018-Apr-20 19:10N 40°49' E 014°07'0 0.0
2018-Apr-20 18:55N 40°49' E 014°07'0 0.0
2018-Apr-20 18:25N 40°49' E 014°07'0 0.0
2018-Apr-20 17:55N 40°49' E 014°07'0 0.0
2018-Apr-20 17:25N 40°49' E 014°07'0 0.0
2018-Apr-20 16:13N 40°49' E 014°07'0 0.0
2018-Apr-20 15:58N 40°49' E 014°07'0 0.0
2018-Apr-20 15:22N 40°49' E 014°07'3 7.8
2018-Apr-20 15:00N 40°47' E 014°06'3 6.3
2018-Apr-20 14:27N 40°46' E 014°02'4 9.1
2018-Apr-20 14:01N 40°48' E 014°06'2 2.8
2018-Apr-20 13:26N 40°49' E 014°07'0 0.0
2018-Apr-20 13:00N 40°49' E 014°07'0 0.0
2018-Apr-20 12:30N 40°49' E 014°07'1 2.5
2018-Apr-20 12:00N 40°48' E 014°06'4 8.7
2018-Apr-20 11:31N 40°46' E 014°02'3 5.7
2018-Apr-20 11:00N 40°47' E 014°05'3 3.4
2018-Apr-20 10:04N 40°49' E 014°07'0 0.0
2018-Apr-20 09:58N 40°49' E 014°07'4 8.8
2018-Apr-20 09:30N 40°46' E 014°04'1 2.5
2018-Apr-20 08:59N 40°46' E 014°02'5 8.9
2018-Apr-20 08:28N 40°49' E 014°07'0 0.4
2018-Apr-20 07:32N 40°49' E 014°07'0 0.0
2018-Apr-20 07:27N 40°49' E 014°07'2 3.8
2018-Apr-20 07:00N 40°48' E 014°06'4 6.0
2018-Apr-20 06:21N 40°46' E 014°02'3 9.8
2018-Apr-20 06:00N 40°47' E 014°06'3 4.2
2018-Apr-20 05:24N 40°49' E 014°07'1 2.5
2018-Apr-20 05:00N 40°49' E 014°06'4 8.9
2018-Apr-20 04:30N 40°46' E 014°02'3 6.4
2018-Apr-20 04:00N 40°47' E 014°06'3 5.1
2018-Apr-20 03:25N 40°49' E 014°07'0 0.0
2018-Apr-20 02:58N 40°49' E 014°07'0 0.0
2018-Apr-20 02:25N 40°49' E 014°07'0 0.0
2018-Apr-20 01:52N 40°49' E 014°07'0 0.0
2018-Apr-20 01:28N 40°49' E 014°07'0 0.0
2018-Apr-20 00:55N 40°49' E 014°07'0 0.0
2018-Apr-20 00:28N 40°49' E 014°07'0 0.0
2018-Apr-19 23:49N 40°49' E 014°07'0 0.0
2018-Apr-19 23:25N 40°49' E 014°07'0 0.0
2018-Apr-19 22:55N 40°49' E 014°07'0 0.0
2018-Apr-19 22:25N 40°49' E 014°07'0 0.0
2018-Apr-19 21:58N 40°49' E 014°07'0 0.0
2018-Apr-19 21:25N 40°49' E 014°07'0 0.0
2018-Apr-19 20:58N 40°49' E 014°07'0 0.0
2018-Apr-19 20:22N 40°49' E 014°07'0 0.0
2018-Apr-19 19:58N 40°49' E 014°07'0 0.0
2018-Apr-19 19:28N 40°49' E 014°07'0 0.0
2018-Apr-19 16:49N 40°49' E 014°07'0 0.0
2018-Apr-19 16:22N 40°49' E 014°07'0 0.0
2018-Apr-19 15:52N 40°49' E 014°07'0 0.0
2018-Apr-19 15:20N 40°49' E 014°07'3 8.7
2018-Apr-19 15:00N 40°47' E 014°06'3 6.3
2018-Apr-19 14:29N 40°46' E 014°02'4 8.8
2018-Apr-19 14:00N 40°48' E 014°06'1 2.5
2018-Apr-19 13:29N 40°49' E 014°07'0 0.0
2018-Apr-19 12:57N 40°49' E 014°07'0 0.0
2018-Apr-19 12:30N 40°49' E 014°07'1 2.3
2018-Apr-19 12:00N 40°48' E 014°06'4 8.5
2018-Apr-19 11:30N 40°46' E 014°02'3 6.1
2018-Apr-19 11:00N 40°47' E 014°05'3 5.3
2018-Apr-19 10:25N 40°49' E 014°07'1 2.0
2018-Apr-19 10:00N 40°49' E 014°06'4 8.7
2018-Apr-19 09:30N 40°46' E 014°02'1 2.2
2018-Apr-19 09:00N 40°46' E 014°03'4 2.6
2018-Apr-19 07:22N 40°49' E 014°07'2 4.5
2018-Apr-19 07:00N 40°48' E 014°06'4 7.4
2018-Apr-19 06:28N 40°46' E 014°02'3 7.4
2018-Apr-19 06:00N 40°47' E 014°06'3 5.6
2018-Apr-19 05:30N 40°49' E 014°07'1 2.3
2018-Apr-19 05:00N 40°48' E 014°06'4 8.4
2018-Apr-19 04:30N 40°46' E 014°02'4 7.3
2018-Apr-19 04:00N 40°47' E 014°06'2 0.8
2018-Apr-19 00:57N 40°49' E 014°07'0 0.0
2018-Apr-19 00:27N 40°49' E 014°07'0 0.0
2018-Apr-18 23:57N 40°49' E 014°07'0 0.0
2018-Apr-18 23:27N 40°49' E 014°07'0 0.0
2018-Apr-18 22:57N 40°49' E 014°07'0 0.0
2018-Apr-18 21:45N 40°49' E 014°07'0 0.0
2018-Apr-18 21:15N 40°49' E 014°07'0 0.0
2018-Apr-18 20:57N 40°49' E 014°07'0 0.0
2018-Apr-18 20:27N 40°49' E 014°07'0 0.0
2018-Apr-18 19:57N 40°49' E 014°07'0 0.0
2018-Apr-18 19:27N 40°49' E 014°07'0 0.0
2018-Apr-18 16:30N 40°49' E 014°07'0 0.0
2018-Apr-18 15:48N 40°49' E 014°07'0 0.0
2018-Apr-18 15:30N 40°49' E 014°07'3 5.9
2018-Apr-18 15:00N 40°47' E 014°06'3 5.8
2018-Apr-18 14:27N 40°46' E 014°02'4 9.3
2018-Apr-18 14:00N 40°48' E 014°06'1 2.6
2018-Apr-18 13:27N 40°49' E 014°07'0 0.0
2018-Apr-18 12:59N 40°49' E 014°07'0 0.0
2018-Apr-18 12:29N 40°49' E 014°07'1 1.8
2018-Apr-18 12:00N 40°49' E 014°06'5 8.9
2018-Apr-18 11:30N 40°46' E 014°02'3 6.7
2018-Apr-18 11:00N 40°47' E 014°06'3 5.2
2018-Apr-18 10:28N 40°49' E 014°07'0 1.0
2018-Apr-18 10:00N 40°49' E 014°06'5 8.9
2018-Apr-18 09:29N 40°46' E 014°02'2 3.1
2018-Apr-18 08:59N 40°46' E 014°04'4 7.9
2018-Apr-18 08:30N 40°49' E 014°07'0 0.0
2018-Apr-18 08:00N 40°49' E 014°07'0 0.0
2018-Apr-18 07:27N 40°49' E 014°07'1 2.2
2018-Apr-18 07:01N 40°49' E 014°06'4 8.5
2018-Apr-18 06:30N 40°46' E 014°02'2 3.8
2018-Apr-18 06:00N 40°46' E 014°04'4 6.1
2018-Apr-18 05:23N 40°49' E 014°07'1 3.7
2018-Apr-18 05:00N 40°48' E 014°06'4 7.9
2018-Apr-18 04:29N 40°46' E 014°02'4 7.5
2018-Apr-18 04:00N 40°47' E 014°06'2 0.1
2018-Apr-16 09:56N 40°49' E 014°07'4 9.6
2018-Apr-16 09:30N 40°46' E 014°03'1 2.2
2018-Apr-16 09:00N 40°46' E 014°02'4 9.1
2018-Apr-16 08:30N 40°49' E 014°06'1 0.9
2018-Apr-16 07:47N 40°49' E 014°07'0 0.0
2018-Apr-16 07:23N 40°49' E 014°07'1 2.2
2018-Apr-16 07:00N 40°49' E 014°06'5 8.9
2018-Apr-16 06:30N 40°46' E 014°02'2 4.1
2018-Apr-16 06:00N 40°46' E 014°04'4 7.2
2018-Apr-16 05:29N 40°49' E 014°07'1 1.5
2018-Apr-16 05:00N 40°49' E 014°06'5 9.3
2018-Apr-16 04:30N 40°46' E 014°02'3 6.6
2018-Apr-16 04:00N 40°47' E 014°06'3 5.1
2018-Apr-16 03:28N 40°49' E 014°07'0 0.0
2018-Apr-16 02:58N 40°49' E 014°07'0 0.0
2018-Apr-16 02:22N 40°49' E 014°07'0 0.0
2018-Apr-16 01:58N 40°49' E 014°07'0 0.0
2018-Apr-16 01:28N 40°49' E 014°07'0 0.0
2018-Apr-16 00:58N 40°49' E 014°07'0 0.0
2018-Apr-16 00:28N 40°49' E 014°07'0 0.0
2018-Apr-15 23:58N 40°49' E 014°07'0 0.0
2018-Apr-15 23:19N 40°49' E 014°07'0 0.0
2018-Apr-15 22:46N 40°49' E 014°07'0 0.0
2018-Apr-15 22:16N 40°49' E 014°07'0 0.0
2018-Apr-15 21:46N 40°49' E 014°07'0 0.0
2018-Apr-15 21:16N 40°49' E 014°07'0 0.0
2018-Apr-15 20:52N 40°49' E 014°07'0 0.0
2018-Apr-15 20:22N 40°49' E 014°07'0 0.0
2018-Apr-15 18:22N 40°49' E 014°07'0 0.0
2018-Apr-15 15:18N 40°49' E 014°07'310.2
2018-Apr-15 15:00N 40°47' E 014°06'3 5.7
2018-Apr-15 14:26N 40°46' E 014°02'4 9.5
2018-Apr-15 14:00N 40°48' E 014°06'1 2.7
2018-Apr-15 13:28N 40°49' E 014°07'0 0.0
2018-Apr-15 13:00N 40°49' E 014°07'0 0.0
2018-Apr-15 12:30N 40°49' E 014°07'1 1.9
2018-Apr-15 12:00N 40°49' E 014°06'4 8.8
2018-Apr-15 11:30N 40°46' E 014°02'3 5.5
2018-Apr-15 11:00N 40°46' E 014°05'3 5.8
2018-Apr-15 10:26N 40°49' E 014°07'0 0.0
2018-Apr-15 10:00N 40°49' E 014°07'4 8.2
2018-Apr-15 09:30N 40°46' E 014°04'0 0.9
2018-Apr-15 09:00N 40°46' E 014°03'4 7.9
2018-Apr-15 08:27N 40°49' E 014°07'0 0.0
2018-Apr-15 07:48N 40°49' E 014°07'0 0.0
2018-Apr-15 07:23N 40°49' E 014°07'3 7.5
2018-Apr-15 07:00N 40°47' E 014°06'3 6.5
2018-Apr-15 06:30N 40°46' E 014°02'5 9.5
2018-Apr-15 06:00N 40°49' E 014°06'0 0.0
2018-Apr-14 15:20N 40°49' E 014°07'310.1
2018-Apr-14 15:01N 40°46' E 014°05'3 5.6
2018-Apr-14 14:28N 40°46' E 014°02'4 9.4
2018-Apr-14 14:00N 40°49' E 014°06'1 2.0
2018-Apr-14 13:30N 40°49' E 014°07'0 0.0
2018-Apr-14 13:00N 40°49' E 014°07'0 0.0
2018-Apr-14 12:30N 40°49' E 014°07'2 3.1
2018-Apr-14 12:00N 40°48' E 014°06'4 7.9
2018-Apr-14 11:30N 40°46' E 014°02'3 6.9
2018-Apr-14 11:00N 40°47' E 014°06'3 5.1
2018-Apr-14 10:30N 40°49' E 014°07'1 1.7
2018-Apr-14 09:51N 40°49' E 014°06'3 8.9
2018-Apr-14 09:30N 40°46' E 014°03'1 1.3
2018-Apr-14 09:00N 40°46' E 014°02'4 2.3
2018-Apr-14 07:06N 40°49' E 014°06'  
Track history (hours):
 
Tides and Currents Weather Stations Pressure Air Temp Water Temp Dewpoint Dewpoint Depression Visibility Wind Speed Wind Dir Waves Ship Positions

Tourist Ferry Boat 3

Last reported at 2018-Apr-24 07:00 UTC. Time now 2018-Apr-24 07:07 UTC.
Position N 40°48' E 014°06'.

Length 58 m; draft 2.5 m.

Type: Ship. MMSI: 247048900.

Date/timePositionNaut miles runAvg speedWind from/ knotsBaromVisibWave heightAir tempDewpointWater temp
2018-Apr-24 07:00N 40°48' E 014°06'4 8.4
2018-Apr-24 06:29N 40°46' E 014°02'2 3.8
2018-Apr-24 06:00N 40°46' E 014°04'4 7.7
2018-Apr-24 05:30N 40°49' E 014°07'1 2.7
2018-Apr-24 04:58N 40°48' E 014°06'4 8.9
2018-Apr-24 04:30N 40°46' E 014°02'3 6.1
2018-Apr-24 04:00N 40°47' E 014°06'3 3.7
2018-Apr-24 03:10N 40°49' E 014°07'0 0.0
2018-Apr-24 02:52N 40°49' E 014°07'0 0.0
2018-Apr-24 02:22N 40°49' E 014°07'0 0.0
2018-Apr-23 23:52N 40°49' E 014°07'0 0.0
2018-Apr-23 23:28N 40°49' E 014°07'0 0.0
2018-Apr-23 22:58N 40°49' E 014°07'0 0.0
2018-Apr-23 22:28N 40°49' E 014°07'0 0.0
2018-Apr-23 21:58N 40°49' E 014°07'0 0.0
2018-Apr-23 21:28N 40°49' E 014°07'0 0.0
2018-Apr-23 20:58N 40°49' E 014°07'0 0.0
2018-Apr-23 20:28N 40°49' E 014°07'0 0.0
2018-Apr-23 19:28N 40°49' E 014°07'0 0.0
2018-Apr-23 18:46N 40°49' E 014°07'0 0.0
2018-Apr-23 18:16N 40°49' E 014°07'0 0.0
2018-Apr-23 17:37N 40°49' E 014°07'0 0.0
2018-Apr-23 17:22N 40°49' E 014°07'0 0.0
2018-Apr-23 16:46N 40°49' E 014°07'0 0.0
2018-Apr-23 15:16N 40°49' E 014°07'2 9.1
2018-Apr-23 15:01N 40°47' E 014°06'4 6.3
2018-Apr-23 14:26N 40°46' E 014°02'4 9.2
2018-Apr-23 14:00N 40°48' E 014°06'2 1.9
2018-Apr-23 13:13N 40°49' E 014°07'0 0.1
2018-Apr-23 12:11N 40°49' E 014°07'210.0
2018-Apr-23 12:00N 40°48' E 014°06'4 7.5
2018-Apr-23 11:30N 40°46' E 014°02'3 5.5
2018-Apr-23 11:00N 40°47' E 014°05'3 5.6
2018-Apr-23 10:26N 40°49' E 014°07'0 0.0
2018-Apr-23 09:57N 40°49' E 014°07'4 9.2
2018-Apr-23 09:30N 40°46' E 014°04'1 2.0
2018-Apr-23 09:00N 40°46' E 014°03'5 8.4
2018-Apr-23 08:27N 40°49' E 014°07'0 0.0
2018-Apr-23 08:00N 40°49' E 014°07'0 0.0
2018-Apr-23 07:30N 40°49' E 014°07'1 1.5
2018-Apr-23 07:00N 40°49' E 014°06'5 8.6
2018-Apr-23 06:28N 40°46' E 014°02'2 4.2
2018-Apr-23 06:00N 40°46' E 014°04'4 6.4
2018-Apr-23 05:25N 40°49' E 014°07'1 2.3
2018-Apr-23 05:00N 40°49' E 014°06'4 8.9
2018-Apr-23 04:30N 40°46' E 014°02'3 6.1
2018-Apr-23 04:00N 40°47' E 014°06'3 4.9
2018-Apr-23 03:22N 40°49' E 014°07'0 0.0
2018-Apr-23 02:58N 40°49' E 014°07'0 0.0
2018-Apr-23 02:16N 40°49' E 014°07'0 0.0
2018-Apr-23 01:52N 40°49' E 014°07'0 0.0
2018-Apr-23 01:25N 40°49' E 014°07'0 0.0
2018-Apr-23 00:52N 40°49' E 014°07'0 0.0
2018-Apr-23 00:25N 40°49' E 014°07'0 0.0
2018-Apr-22 23:34N 40°49' E 014°07'0 0.0
2018-Apr-22 23:28N 40°49' E 014°07'0 0.0
2018-Apr-22 22:52N 40°49' E 014°07'0 0.0
2018-Apr-22 21:13N 40°49' E 014°07'0 0.0
2018-Apr-22 20:49N 40°49' E 014°07'0 0.0
2018-Apr-22 20:19N 40°49' E 014°07'0 0.0
2018-Apr-22 18:58N 40°49' E 014°07'0 0.0
2018-Apr-22 18:19N 40°49' E 014°07'0 0.0
2018-Apr-22 16:49N 40°49' E 014°07'0 0.0
2018-Apr-22 15:25N 40°49' E 014°07'3 6.8
2018-Apr-22 15:00N 40°47' E 014°06'3 4.9
2018-Apr-22 14:23N 40°46' E 014°02'4 9.5
2018-Apr-22 14:00N 40°48' E 014°06'2 3.1
2018-Apr-22 13:30N 40°49' E 014°07'0 0.0
2018-Apr-22 12:53N 40°49' E 014°07'0 0.0
2018-Apr-22 12:30N 40°49' E 014°07'1 1.3
2018-Apr-22 12:00N 40°49' E 014°06'5 9.3
2018-Apr-22 11:30N 40°46' E 014°02'3 5.3
2018-Apr-22 11:00N 40°47' E 014°05'3 6.1
2018-Apr-22 10:28N 40°49' E 014°07'0 0.0
2018-Apr-22 09:57N 40°49' E 014°07'4 9.1
2018-Apr-22 09:30N 40°46' E 014°04'1 2.0
2018-Apr-22 09:00N 40°46' E 014°02'5 9.4
2018-Apr-22 08:30N 40°49' E 014°07'0 0.3
2018-Apr-22 08:00N 40°49' E 014°07'0 0.0
2018-Apr-22 07:30N 40°49' E 014°07'2 3.3
2018-Apr-22 07:00N 40°48' E 014°06'4 6.1
2018-Apr-22 06:23N 40°46' E 014°02'410.0
2018-Apr-22 06:00N 40°48' E 014°06'2 0.7
2018-Apr-22 03:37N 40°49' E 014°07'0 0.0
2018-Apr-22 03:16N 40°49' E 014°07'0 0.0
2018-Apr-22 02:58N 40°49' E 014°07'0 0.0
2018-Apr-22 01:19N 40°49' E 014°07'0 0.0
2018-Apr-22 00:49N 40°49' E 014°07'0 0.0
2018-Apr-21 15:17N 40°49' E 014°07'3 9.8
2018-Apr-21 15:00N 40°47' E 014°06'3 6.8
2018-Apr-21 14:30N 40°46' E 014°02'5 9.3
2018-Apr-21 14:00N 40°49' E 014°06'1 1.3
2018-Apr-21 13:30N 40°49' E 014°07'0 0.0
2018-Apr-21 12:58N 40°49' E 014°07'0 0.0
2018-Apr-21 12:29N 40°49' E 014°07'1 1.5
2018-Apr-21 12:00N 40°49' E 014°06'5 6.8
2018-Apr-21 11:19N 40°46' E 014°02'3 9.5
2018-Apr-21 11:00N 40°47' E 014°06'3 6.1
2018-Apr-21 10:30N 40°49' E 014°07'0 0.2
2018-Apr-21 09:58N 40°49' E 014°07'4 9.2
2018-Apr-21 09:30N 40°46' E 014°03'1 1.3
2018-Apr-21 09:00N 40°46' E 014°02'5 9.3
2018-Apr-21 08:30N 40°49' E 014°07'0 0.2
2018-Apr-21 07:13N 40°49' E 014°07'1 5.8
2018-Apr-21 06:59N 40°48' E 014°06'4 8.6
2018-Apr-21 06:30N 40°46' E 014°02'4 7.4
2018-Apr-21 06:00N 40°47' E 014°06'2 3.7
2018-Apr-21 05:25N 40°49' E 014°07'0 0.0
2018-Apr-21 04:43N 40°49' E 014°07'0 0.0
2018-Apr-21 04:28N 40°49' E 014°07'0 0.0
2018-Apr-21 03:58N 40°49' E 014°07'0 0.0
2018-Apr-21 03:28N 40°49' E 014°07'0 0.0
2018-Apr-21 02:58N 40°49' E 014°07'0 0.0
2018-Apr-21 02:28N 40°49' E 014°07'0 0.0
2018-Apr-21 01:46N 40°49' E 014°07'0 0.0
2018-Apr-21 01:28N 40°49' E 014°07'0 0.0
2018-Apr-21 00:58N 40°49' E 014°07'0 0.0
2018-Apr-21 00:28N 40°49' E 014°07'0 0.0
2018-Apr-20 23:58N 40°49' E 014°07'0 0.0
2018-Apr-20 23:19N 40°49' E 014°07'0 0.0
2018-Apr-20 22:49N 40°49' E 014°07'0 0.0
2018-Apr-20 22:19N 40°49' E 014°07'0 0.0
2018-Apr-20 21:52N 40°49' E 014°07'0 0.0
2018-Apr-20 21:22N 40°49' E 014°07'0 0.0
2018-Apr-20 20:52N 40°49' E 014°07'0 0.0
2018-Apr-20 20:19N 40°49' E 014°07'0 0.0
2018-Apr-20 19:52N 40°49' E 014°07'0 0.0
2018-Apr-20 19:10N 40°49' E 014°07'0 0.0
2018-Apr-20 18:55N 40°49' E 014°07'0 0.0
2018-Apr-20 18:25N 40°49' E 014°07'0 0.0
2018-Apr-20 17:55N 40°49' E 014°07'0 0.0
2018-Apr-20 17:25N 40°49' E 014°07'0 0.0
2018-Apr-20 16:13N 40°49' E 014°07'0 0.0
2018-Apr-20 15:58N 40°49' E 014°07'0 0.0
2018-Apr-20 15:22N 40°49' E 014°07'3 7.8
2018-Apr-20 15:00N 40°47' E 014°06'3 6.3
2018-Apr-20 14:27N 40°46' E 014°02'4 9.1
2018-Apr-20 14:01N 40°48' E 014°06'2 2.8
2018-Apr-20 13:26N 40°49' E 014°07'0 0.0
2018-Apr-20 13:00N 40°49' E 014°07'0 0.0
2018-Apr-20 12:30N 40°49' E 014°07'1 2.5
2018-Apr-20 12:00N 40°48' E 014°06'4 8.7
2018-Apr-20 11:31N 40°46' E 014°02'3 5.7
2018-Apr-20 11:00N 40°47' E 014°05'3 3.4
2018-Apr-20 10:04N 40°49' E 014°07'0 0.0
2018-Apr-20 09:58N 40°49' E 014°07'4 8.8
2018-Apr-20 09:30N 40°46' E 014°04'1 2.5
2018-Apr-20 08:59N 40°46' E 014°02'5 8.9
2018-Apr-20 08:28N 40°49' E 014°07'0 0.4
2018-Apr-20 07:32N 40°49' E 014°07'0 0.0
2018-Apr-20 07:27N 40°49' E 014°07'2 3.8
2018-Apr-20 07:00N 40°48' E 014°06'4 6.0
2018-Apr-20 06:21N 40°46' E 014°02'3 9.8
2018-Apr-20 06:00N 40°47' E 014°06'3 4.2
2018-Apr-20 05:24N 40°49' E 014°07'1 2.5
2018-Apr-20 05:00N 40°49' E 014°06'4 8.9
2018-Apr-20 04:30N 40°46' E 014°02'3 6.4
2018-Apr-20 04:00N 40°47' E 014°06'3 5.1
2018-Apr-20 03:25N 40°49' E 014°07'0 0.0
2018-Apr-20 02:58N 40°49' E 014°07'0 0.0
2018-Apr-20 02:25N 40°49' E 014°07'0 0.0
2018-Apr-20 01:52N 40°49' E 014°07'0 0.0
2018-Apr-20 01:28N 40°49' E 014°07'0 0.0
2018-Apr-20 00:55N 40°49' E 014°07'0 0.0
2018-Apr-20 00:28N 40°49' E 014°07'0 0.0
2018-Apr-19 23:49N 40°49' E 014°07'0 0.0
2018-Apr-19 23:25N 40°49' E 014°07'0 0.0
2018-Apr-19 22:55N 40°49' E 014°07'0 0.0
2018-Apr-19 22:25N 40°49' E 014°07'0 0.0
2018-Apr-19 21:58N 40°49' E 014°07'0 0.0
2018-Apr-19 21:25N 40°49' E 014°07'0 0.0
2018-Apr-19 20:58N 40°49' E 014°07'0 0.0
2018-Apr-19 20:22N 40°49' E 014°07'0 0.0
2018-Apr-19 19:58N 40°49' E 014°07'0 0.0
2018-Apr-19 19:28N 40°49' E 014°07'0 0.0
2018-Apr-19 16:49N 40°49' E 014°07'0 0.0
2018-Apr-19 16:22N 40°49' E 014°07'0 0.0
2018-Apr-19 15:52N 40°49' E 014°07'0 0.0
2018-Apr-19 15:20N 40°49' E 014°07'3 8.7
2018-Apr-19 15:00N 40°47' E 014°06'3 6.3
2018-Apr-19 14:29N 40°46' E 014°02'4 8.8
2018-Apr-19 14:00N 40°48' E 014°06'1 2.5
2018-Apr-19 13:29N 40°49' E 014°07'0 0.0
2018-Apr-19 12:57N 40°49' E 014°07'0 0.0
2018-Apr-19 12:30N 40°49' E 014°07'1 2.3
2018-Apr-19 12:00N 40°48' E 014°06'4 8.5
2018-Apr-19 11:30N 40°46' E 014°02'3 6.1
2018-Apr-19 11:00N 40°47' E 014°05'3 5.3
2018-Apr-19 10:25N 40°49' E 014°07'1 2.0
2018-Apr-19 10:00N 40°49' E 014°06'4 8.7
2018-Apr-19 09:30N 40°46' E 014°02'1 2.2
2018-Apr-19 09:00N 40°46' E 014°03'4 2.6
2018-Apr-19 07:22N 40°49' E 014°07'2 4.5
2018-Apr-19 07:00N 40°48' E 014°06'4 7.4
2018-Apr-19 06:28N 40°46' E 014°02'3 7.4
2018-Apr-19 06:00N 40°47' E 014°06'3 5.6
2018-Apr-19 05:30N 40°49' E 014°07'1 2.3
2018-Apr-19 05:00N 40°48' E 014°06'4 8.4
2018-Apr-19 04:30N 40°46' E 014°02'4 7.3
2018-Apr-19 04:00N 40°47' E 014°06'2 0.8
2018-Apr-19 00:57N 40°49' E 014°07'0 0.0
2018-Apr-19 00:27N 40°49' E 014°07'0 0.0
2018-Apr-18 23:57N 40°49' E 014°07'0 0.0
2018-Apr-18 23:27N 40°49' E 014°07'0 0.0
2018-Apr-18 22:57N 40°49' E 014°07'0 0.0
2018-Apr-18 21:45N 40°49' E 014°07'0 0.0
2018-Apr-18 21:15N 40°49' E 014°07'0 0.0
2018-Apr-18 20:57N 40°49' E 014°07'0 0.0
2018-Apr-18 20:27N 40°49' E 014°07'0 0.0
2018-Apr-18 19:57N 40°49' E 014°07'0 0.0
2018-Apr-18 19:27N 40°49' E 014°07'0 0.0
2018-Apr-18 16:30N 40°49' E 014°07'0 0.0
2018-Apr-18 15:48N 40°49' E 014°07'0 0.0
2018-Apr-18 15:30N 40°49' E 014°07'3 5.9
2018-Apr-18 15:00N 40°47' E 014°06'3 5.8
2018-Apr-18 14:27N 40°46' E 014°02'4 9.3
2018-Apr-18 14:00N 40°48' E 014°06'1 2.6
2018-Apr-18 13:27N 40°49' E 014°07'0 0.0
2018-Apr-18 12:59N 40°49' E 014°07'0 0.0
2018-Apr-18 12:29N 40°49' E 014°07'1 1.8
2018-Apr-18 12:00N 40°49' E 014°06'5 8.9
2018-Apr-18 11:30N 40°46' E 014°02'3 6.7
2018-Apr-18 11:00N 40°47' E 014°06'3 5.2
2018-Apr-18 10:28N 40°49' E 014°07'0 1.0
2018-Apr-18 10:00N 40°49' E 014°06'5 8.9
2018-Apr-18 09:29N 40°46' E 014°02'2 3.1
2018-Apr-18 08:59N 40°46' E 014°04'4 7.9
2018-Apr-18 08:30N 40°49' E 014°07'0 0.0
2018-Apr-18 08:00N 40°49' E 014°07'0 0.0
2018-Apr-18 07:27N 40°49' E 014°07'1 2.2
2018-Apr-18 07:01N 40°49' E 014°06'4 8.5
2018-Apr-18 06:30N 40°46' E 014°02'2 3.8
2018-Apr-18 06:00N 40°46' E 014°04'4 6.1
2018-Apr-18 05:23N 40°49' E 014°07'1 3.7
2018-Apr-18 05:00N 40°48' E 014°06'4 7.9
2018-Apr-18 04:29N 40°46' E 014°02'4 7.5
2018-Apr-18 04:00N 40°47' E 014°06'2 0.1
2018-Apr-16 09:56N 40°49' E 014°07'4 9.6
2018-Apr-16 09:30N 40°46' E 014°03'1 2.2
2018-Apr-16 09:00N 40°46' E 014°02'4 9.1
2018-Apr-16 08:30N 40°49' E 014°06'1 0.9
2018-Apr-16 07:47N 40°49' E 014°07'0 0.0
2018-Apr-16 07:23N 40°49' E 014°07'1 2.2
2018-Apr-16 07:00N 40°49' E 014°06'5 8.9
2018-Apr-16 06:30N 40°46' E 014°02'2 4.1
2018-Apr-16 06:00N 40°46' E 014°04'4 7.2
2018-Apr-16 05:29N 40°49' E 014°07'1 1.5
2018-Apr-16 05:00N 40°49' E 014°06'5 9.3
2018-Apr-16 04:30N 40°46' E 014°02'3 6.6
2018-Apr-16 04:00N 40°47' E 014°06'3 5.1
2018-Apr-16 03:28N 40°49' E 014°07'0 0.0
2018-Apr-16 02:58N 40°49' E 014°07'0 0.0
2018-Apr-16 02:22N 40°49' E 014°07'0 0.0
2018-Apr-16 01:58N 40°49' E 014°07'0 0.0
2018-Apr-16 01:28N 40°49' E 014°07'0 0.0
2018-Apr-16 00:58N 40°49' E 014°07'0 0.0
2018-Apr-16 00:28N 40°49' E 014°07'0 0.0
2018-Apr-15 23:58N 40°49' E 014°07'0 0.0
2018-Apr-15 23:19N 40°49' E 014°07'0 0.0
2018-Apr-15 22:46N 40°49' E 014°07'0 0.0
2018-Apr-15 22:16N 40°49' E 014°07'0 0.0
2018-Apr-15 21:46N 40°49' E 014°07'0 0.0
2018-Apr-15 21:16N 40°49' E 014°07'0 0.0
2018-Apr-15 20:52N 40°49' E 014°07'0 0.0
2018-Apr-15 20:22N 40°49' E 014°07'0 0.0
2018-Apr-15 18:22N 40°49' E 014°07'0 0.0
2018-Apr-15 15:18N 40°49' E 014°07'310.2
2018-Apr-15 15:00N 40°47' E 014°06'3 5.7
2018-Apr-15 14:26N 40°46' E 014°02'4 9.5
2018-Apr-15 14:00N 40°48' E 014°06'1 2.7
2018-Apr-15 13:28N 40°49' E 014°07'0 0.0
2018-Apr-15 13:00N 40°49' E 014°07'0 0.0
2018-Apr-15 12:30N 40°49' E 014°07'1 1.9
2018-Apr-15 12:00N 40°49' E 014°06'4 8.8
2018-Apr-15 11:30N 40°46' E 014°02'3 5.5
2018-Apr-15 11:00N 40°46' E 014°05'3 5.8
2018-Apr-15 10:26N 40°49' E 014°07'0 0.0
2018-Apr-15 10:00N 40°49' E 014°07'4 8.2
2018-Apr-15 09:30N 40°46' E 014°04'0 0.9
2018-Apr-15 09:00N 40°46' E 014°03'4 7.9
2018-Apr-15 08:27N 40°49' E 014°07'0 0.0
2018-Apr-15 07:48N 40°49' E 014°07'0 0.0
2018-Apr-15 07:23N 40°49' E 014°07'3 7.5
2018-Apr-15 07:00N 40°47' E 014°06'3 6.5
2018-Apr-15 06:30N 40°46' E 014°02'5 9.5
2018-Apr-15 06:00N 40°49' E 014°06'0 0.0
2018-Apr-14 15:20N 40°49' E 014°07'310.1
2018-Apr-14 15:01N 40°46' E 014°05'3 5.6
2018-Apr-14 14:28N 40°46' E 014°02'4 9.4
2018-Apr-14 14:00N 40°49' E 014°06'1 2.0
2018-Apr-14 13:30N 40°49' E 014°07'0 0.0
2018-Apr-14 13:00N 40°49' E 014°07'0 0.0
2018-Apr-14 12:30N 40°49' E 014°07'2 3.1
2018-Apr-14 12:00N 40°48' E 014°06'4 7.9
2018-Apr-14 11:30N 40°46' E 014°02'3 6.9
2018-Apr-14 11:00N 40°47' E 014°06'3 5.1
2018-Apr-14 10:30N 40°49' E 014°07'1 1.7
2018-Apr-14 09:51N 40°49' E 014°06'3 8.9
2018-Apr-14 09:30N 40°46' E 014°03'1 1.3
2018-Apr-14 09:00N 40°46' E 014°02'4 2.3
2018-Apr-14 07:06N 40°49' E 014°06'  

Dump ship's entire track history